createdAt,value
2019-02-04T00:01:46.238Z,7.20
2019-02-04T00:04:15.973Z,6.57
2019-02-04T00:06:45.679Z,6.70
2019-02-04T00:09:15.400Z,7.57
2019-02-04T00:11:45.095Z,10.30
2019-02-04T00:14:14.890Z,8.43
2019-02-04T00:16:44.320Z,6.80
2019-02-04T00:19:13.993Z,6.07
2019-02-04T00:21:43.776Z,7.40
2019-02-04T00:24:13.460Z,7.80
2019-02-04T00:26:51.325Z,4.93
2019-02-04T00:29:14.141Z,5.63
2019-02-04T00:31:43.633Z,6.10
2019-02-04T00:34:13.151Z,6.13
2019-02-04T00:36:42.948Z,5.63
2019-02-04T00:39:12.817Z,5.93
2019-02-04T00:41:42.459Z,7.90
2019-02-04T00:44:12.107Z,5.43
2019-02-04T00:46:51.751Z,4.73
2019-02-04T00:49:13.384Z,4.67
2019-02-04T00:51:43.093Z,7.97
2019-02-04T00:54:12.798Z,7.50
2019-02-04T00:56:42.570Z,6.10
2019-02-04T00:59:12.485Z,5.70
2019-02-04T01:01:41.921Z,6.57
2019-02-04T01:04:11.302Z,6.80
2019-02-04T01:06:40.975Z,5.20
2019-02-04T01:09:11.583Z,5.10
2019-02-04T01:11:41.059Z,5.53
2019-02-04T01:14:10.815Z,6.07
2019-02-04T01:16:40.688Z,6.27
2019-02-04T01:19:10.508Z,4.93
2019-02-04T01:21:40.377Z,4.33
2019-02-04T01:24:10.189Z,7.37
2019-02-04T01:26:39.627Z,12.03
2019-02-04T01:29:09.335Z,11.50
2019-02-04T01:31:39.109Z,10.87
2019-02-04T01:34:08.606Z,11.70
2019-02-04T01:36:38.665Z,10.57
2019-02-04T01:39:09.938Z,11.53
2019-02-04T01:41:39.441Z,12.70
2019-02-04T01:44:09.204Z,16.00
2019-02-04T01:46:39.037Z,14.53
2019-02-04T01:49:08.486Z,13.77
2019-02-04T01:51:38.380Z,11.37
2019-02-04T01:54:07.801Z,10.17
2019-02-04T01:56:37.496Z,8.60
2019-02-04T01:59:06.995Z,7.40
2019-02-04T02:01:37.792Z,7.33
2019-02-04T02:04:07.692Z,6.40
2019-02-04T02:06:37.502Z,6.93
2019-02-04T02:09:16.631Z,6.53
2019-02-04T02:11:46.074Z,6.83
2019-02-04T02:14:15.673Z,7.27
2019-02-04T02:16:45.446Z,10.67
2019-02-04T02:19:14.921Z,10.20
2019-02-04T02:21:44.593Z,12.60
2019-02-04T02:24:14.305Z,9.23
2019-02-04T02:26:43.972Z,8.40
2019-02-04T02:29:14.048Z,7.87
2019-02-04T02:31:43.501Z,13.67
2019-02-04T02:34:12.950Z,13.87
2019-02-04T02:36:42.484Z,11.73
2019-02-04T02:39:12.176Z,9.40
2019-02-04T02:41:41.874Z,8.70
2019-02-04T02:44:11.984Z,9.80
2019-02-04T02:46:41.795Z,7.47
2019-02-04T02:49:11.500Z,5.73
2019-02-04T02:51:40.945Z,5.87
2019-02-04T02:54:10.591Z,8.30
2019-02-04T02:56:40.019Z,6.80
2019-02-04T02:59:09.413Z,5.80
2019-02-04T03:01:38.857Z,5.53
2019-02-04T03:04:08.526Z,5.47
2019-02-04T03:06:38.416Z,7.23
2019-02-04T03:09:08.995Z,6.73
2019-02-04T03:11:38.860Z,11.50
2019-02-04T03:14:08.375Z,8.53
2019-02-04T03:16:37.925Z,5.60
2019-02-04T03:19:07.399Z,4.23
2019-02-04T03:21:36.830Z,4.30
2019-02-04T03:24:06.419Z,5.20
2019-02-04T03:26:36.049Z,38.20
2019-02-04T03:29:05.736Z,59.80
2019-02-04T03:31:38.872Z,49.83
2019-02-04T03:34:06.609Z,31.33
2019-02-04T03:36:36.055Z,27.90
2019-02-04T03:39:08.630Z,19.43
2019-02-04T03:41:38.364Z,18.03
2019-02-04T03:44:07.959Z,39.37
2019-02-04T03:46:37.424Z,126.17
2019-02-04T03:49:07.391Z,33.77
2019-02-04T03:51:36.842Z,105.03
2019-02-04T03:54:06.598Z,49.43
2019-02-04T03:56:36.149Z,21.23
2019-02-04T03:59:05.904Z,20.83
2019-02-04T04:01:35.421Z,26.47
2019-02-04T04:04:05.318Z,10.53
2019-02-04T04:06:35.215Z,15.70
2019-02-04T04:09:07.451Z,19.67
2019-02-04T04:11:36.982Z,25.17
2019-02-04T04:14:06.497Z,26.17
2019-02-04T04:16:35.939Z,27.10
2019-02-04T04:19:05.714Z,26.60
2019-02-04T04:21:35.153Z,32.43
2019-02-04T04:24:04.627Z,51.47
2019-02-04T04:26:34.220Z,45.63
2019-02-04T04:29:04.035Z,41.00
2019-02-04T04:31:33.470Z,39.27
2019-02-04T04:34:03.761Z,38.00
2019-02-04T04:36:33.498Z,39.27
2019-02-04T04:39:04.592Z,40.03
2019-02-04T04:41:34.187Z,39.33
2019-02-04T04:44:03.692Z,40.57
2019-02-04T04:46:33.605Z,38.20
2019-02-04T04:49:03.000Z,38.87
2019-02-04T04:51:32.436Z,37.20
2019-02-04T04:54:04.505Z,32.07
2019-02-04T04:56:33.925Z,30.87
2019-02-04T04:59:03.572Z,25.57
2019-02-04T05:01:33.766Z,31.40
2019-02-04T05:04:03.865Z,48.37
2019-02-04T05:06:33.594Z,50.23
2019-02-04T05:09:04.769Z,46.03
2019-02-04T05:11:34.604Z,45.97
2019-02-04T05:14:04.455Z,50.40
2019-02-04T05:16:33.905Z,42.53
2019-02-04T05:19:03.750Z,45.50
2019-02-04T05:21:33.481Z,46.00
2019-02-04T05:24:02.874Z,49.43
2019-02-04T05:26:32.772Z,53.47
2019-02-04T05:29:02.878Z,51.13
2019-02-04T05:31:32.322Z,50.77
2019-02-04T05:34:01.926Z,48.73
2019-02-04T05:36:31.757Z,47.50
2019-02-04T05:39:01.514Z,50.33
2019-02-04T05:41:30.956Z,49.07
2019-02-04T05:44:00.466Z,49.90
2019-02-04T05:46:30.095Z,47.80
2019-02-04T05:48:59.886Z,48.67
2019-02-04T05:51:29.358Z,48.37
2019-02-04T05:53:58.793Z,52.23
2019-02-04T05:56:28.468Z,49.67
2019-02-04T05:58:58.203Z,48.60
2019-02-04T06:01:28.024Z,50.50
2019-02-04T06:03:57.741Z,49.53
2019-02-04T06:06:27.428Z,195.07
2019-02-04T06:08:57.063Z,52.07
2019-02-04T06:11:27.332Z,51.93
2019-02-04T06:13:57.176Z,45.57
2019-02-04T06:16:26.985Z,49.53
2019-02-04T06:19:00.816Z,47.87
2019-02-04T06:21:27.652Z,47.17
2019-02-04T06:23:57.359Z,52.00
2019-02-04T06:26:26.941Z,46.40
2019-02-04T06:28:56.347Z,58.93
2019-02-04T06:31:26.103Z,54.17
2019-02-04T06:33:55.962Z,51.40
2019-02-04T06:36:25.743Z,64.93
2019-02-04T06:38:56.832Z,64.27
2019-02-04T06:41:26.527Z,75.53
2019-02-04T06:43:56.129Z,96.17
2019-02-04T06:46:25.959Z,177.60
2019-02-04T06:48:55.727Z,122.97
2019-02-04T06:51:25.115Z,108.63
2019-02-04T06:53:54.973Z,47.17
2019-02-04T06:56:24.882Z,49.27
2019-02-04T06:58:54.702Z,35.90
2019-02-04T07:01:24.101Z,37.90
2019-02-04T07:03:53.701Z,45.43
2019-02-04T07:06:24.326Z,44.30
2019-02-04T07:08:53.886Z,45.80
2019-02-04T07:11:23.563Z,108.03
2019-02-04T07:13:53.225Z,119.00
2019-02-04T07:16:22.879Z,94.67
2019-02-04T07:18:52.472Z,82.10
2019-02-04T07:21:22.347Z,83.27
2019-02-04T07:23:52.220Z,70.50
2019-02-04T07:26:21.859Z,84.17
2019-02-04T07:28:51.513Z,38.73
2019-02-04T07:31:21.235Z,41.17
2019-02-04T07:33:50.734Z,38.97
2019-02-04T07:36:20.727Z,27.70
2019-02-04T07:38:50.239Z,35.77
2019-02-04T07:41:19.973Z,23.23
2019-02-04T07:43:49.477Z,24.17
2019-02-04T07:46:18.868Z,24.83
2019-02-04T07:48:48.476Z,23.27
2019-02-04T07:51:18.324Z,23.87
2019-02-04T07:53:47.762Z,24.47
2019-02-04T07:56:17.435Z,22.47
2019-02-04T07:58:47.234Z,32.73
2019-02-04T08:01:16.795Z,23.50
2019-02-04T08:03:46.425Z,22.87
2019-02-04T08:06:15.911Z,23.70
2019-02-04T08:08:45.796Z,21.10
2019-02-04T08:11:15.198Z,20.60
2019-02-04T08:13:44.604Z,20.87
2019-02-04T08:16:14.555Z,22.83
2019-02-04T08:18:44.645Z,23.10
2019-02-04T08:21:14.271Z,23.60
2019-02-04T08:23:43.676Z,23.63
2019-02-04T08:26:13.330Z,23.30
2019-02-04T08:28:42.828Z,22.47
2019-02-04T08:31:12.402Z,21.60
2019-02-04T08:33:42.547Z,19.40
2019-02-04T08:36:12.509Z,16.17
2019-02-04T08:38:42.241Z,17.00
2019-02-04T08:41:12.073Z,16.52
2019-02-04T08:43:41.616Z,16.40
2019-02-04T08:46:11.255Z,17.47
2019-02-04T08:48:41.077Z,20.00
2019-02-04T08:51:10.968Z,20.67
2019-02-04T08:53:40.651Z,20.13
2019-02-04T08:56:10.213Z,21.47
2019-02-04T08:58:39.903Z,23.13
2019-02-04T09:01:09.799Z,26.07
2019-02-04T09:03:40.004Z,27.27
2019-02-04T09:06:09.467Z,23.97
2019-02-04T09:08:38.877Z,22.17
2019-02-04T09:11:08.841Z,21.37
2019-02-04T09:13:38.672Z,21.27
2019-02-04T09:16:08.160Z,21.47
2019-02-04T09:18:44.890Z,21.57
2019-02-04T09:21:09.488Z,18.53
2019-02-04T09:23:39.333Z,19.13
2019-02-04T09:26:09.061Z,20.67
2019-02-04T09:28:38.668Z,24.00
2019-02-04T09:31:08.499Z,19.33
2019-02-04T09:33:38.549Z,17.70
2019-02-04T09:36:08.415Z,20.40
2019-02-04T09:38:38.015Z,20.03
2019-02-04T09:41:07.987Z,20.50
2019-02-04T09:43:37.824Z,19.13
2019-02-04T09:46:07.292Z,19.00
2019-02-04T09:48:37.269Z,16.87
2019-02-04T09:51:07.030Z,18.97
2019-02-04T09:53:36.575Z,20.47
2019-02-04T09:56:06.680Z,20.10
2019-02-04T09:58:36.240Z,20.30
2019-02-04T10:01:06.637Z,19.20
2019-02-04T10:03:36.335Z,19.63
2019-02-04T10:06:06.478Z,21.53
2019-02-04T10:08:36.115Z,18.40
2019-02-04T10:11:05.791Z,18.53
2019-02-04T10:13:35.492Z,21.67
2019-02-04T10:16:05.900Z,21.53
2019-02-04T10:18:37.853Z,19.10
2019-02-04T10:21:07.152Z,17.00
2019-02-04T10:23:36.906Z,17.90
2019-02-04T10:26:06.515Z,18.77
2019-02-04T10:28:36.279Z,16.93
2019-02-04T10:31:05.880Z,17.67
2019-02-04T10:33:35.364Z,16.60
2019-02-04T10:36:05.049Z,18.67
2019-02-04T10:38:34.485Z,28.83
2019-02-04T10:41:04.404Z,18.60
2019-02-04T10:43:34.586Z,21.00
2019-02-04T10:46:05.088Z,20.27
2019-02-04T10:48:35.041Z,19.27
2019-02-04T10:51:04.965Z,18.07
2019-02-04T10:53:34.538Z,24.87
2019-02-04T10:56:04.475Z,21.40
2019-02-04T10:58:34.287Z,20.50
2019-02-04T11:01:05.451Z,19.00
2019-02-04T11:03:35.343Z,18.83
2019-02-04T11:06:05.526Z,18.57
2019-02-04T11:08:34.887Z,20.83
2019-02-04T11:11:04.913Z,18.77
2019-02-04T11:13:34.592Z,19.63
2019-02-04T11:16:04.485Z,20.53
2019-02-04T11:18:34.130Z,21.00
2019-02-04T11:21:04.033Z,20.70
2019-02-04T11:23:33.791Z,20.80
2019-02-04T11:26:03.714Z,20.97
2019-02-04T11:28:33.453Z,21.00
2019-02-04T11:31:05.100Z,22.07
2019-02-04T11:33:34.485Z,21.37
2019-02-04T11:36:04.548Z,21.67
2019-02-04T11:38:34.497Z,21.03
2019-02-04T11:41:04.357Z,22.80
2019-02-04T11:43:33.749Z,22.67
2019-02-04T11:46:03.581Z,20.53
2019-02-04T11:48:33.506Z,20.67
2019-02-04T11:51:09.718Z,22.27
2019-02-04T11:53:34.315Z,21.40
2019-02-04T11:56:03.784Z,21.87
2019-02-04T11:58:33.290Z,28.37
2019-02-04T12:01:03.169Z,23.20
2019-02-04T12:03:33.048Z,22.70
2019-02-04T12:06:02.452Z,24.30
2019-02-04T12:08:32.145Z,20.27
2019-02-04T12:11:21.533Z,20.87
2019-02-04T12:13:51.012Z,19.10
2019-02-04T12:16:20.451Z,17.77
2019-02-04T12:18:49.863Z,20.90
2019-02-04T12:21:21.682Z,26.20
2019-02-04T12:23:51.185Z,20.40
2019-02-04T12:26:20.887Z,20.37
2019-02-04T12:28:51.642Z,20.50
2019-02-04T12:31:21.803Z,28.57
2019-02-04T12:33:51.447Z,26.07
2019-02-04T12:36:20.958Z,22.93
2019-02-04T12:38:50.855Z,21.60
2019-02-04T12:41:20.266Z,22.97
2019-02-04T12:43:50.104Z,23.00
2019-02-04T12:46:20.020Z,24.23
2019-02-04T12:48:49.714Z,23.40
2019-02-04T12:51:19.117Z,22.57
2019-02-04T12:53:48.709Z,21.23
2019-02-04T12:56:18.201Z,21.37
2019-02-04T12:58:55.333Z,25.60
2019-02-04T13:01:19.055Z,22.80
2019-02-04T13:03:48.573Z,25.27
2019-02-04T13:06:18.448Z,22.00
2019-02-04T13:08:48.171Z,21.67
2019-02-04T13:11:18.070Z,20.00
2019-02-04T13:13:48.233Z,22.60
2019-02-04T13:16:18.026Z,22.47
2019-02-04T13:18:47.742Z,24.60
2019-02-04T13:21:17.582Z,34.67
2019-02-04T13:23:47.067Z,35.30
2019-02-04T13:26:16.465Z,23.77
2019-02-04T13:28:46.031Z,21.90
2019-02-04T13:31:15.625Z,21.10
2019-02-04T13:33:45.111Z,23.33
2019-02-04T13:36:14.779Z,30.70
2019-02-04T13:38:44.371Z,28.13
2019-02-04T13:41:14.219Z,24.87
2019-02-04T13:43:44.039Z,25.93
2019-02-04T13:46:13.720Z,28.70
2019-02-04T13:48:43.312Z,28.03
2019-02-04T13:51:13.169Z,30.53
2019-02-04T13:53:42.575Z,28.70
2019-02-04T13:56:14.575Z,25.33
2019-02-04T13:58:44.155Z,26.53
2019-02-04T14:01:14.041Z,24.20
2019-02-04T14:03:43.429Z,23.73
2019-02-04T14:06:13.365Z,24.90
2019-02-04T14:08:43.174Z,22.00
2019-02-04T14:11:12.848Z,23.97
2019-02-04T14:13:42.567Z,25.17
2019-02-04T14:16:12.357Z,24.40
2019-02-04T14:18:41.854Z,23.77
2019-02-04T14:21:11.251Z,27.77
2019-02-04T14:23:40.934Z,28.10
2019-02-04T14:26:10.911Z,27.67
2019-02-04T14:28:40.740Z,29.40
2019-02-04T14:31:10.182Z,30.10
2019-02-04T14:33:39.588Z,29.00
2019-02-04T14:36:09.565Z,31.60
2019-02-04T14:38:39.432Z,39.23
2019-02-04T14:41:09.134Z,30.20
2019-02-04T14:43:50.857Z,27.70
2019-02-04T14:46:35.127Z,25.03
2019-02-04T14:49:47.189Z,30.10
2019-02-04T14:52:46.960Z,24.83
2019-02-04T14:55:52.427Z,22.77
2019-02-04T14:58:46.385Z,22.37
2019-02-04T15:02:02.868Z,22.90
2019-02-04T15:05:23.966Z,24.07
2019-02-04T15:08:39.640Z,29.67
2019-02-04T15:11:33.289Z,46.77
2019-02-04T15:14:32.197Z,23.63
2019-02-04T15:17:26.606Z,41.80
2019-02-04T15:20:55.269Z,64.20
2019-02-04T15:24:09.178Z,74.17
2019-02-04T15:27:05.387Z,70.73
2019-02-04T15:30:13.949Z,80.03
2019-02-04T15:33:19.523Z,61.43
2019-02-04T15:36:32.508Z,43.43
2019-02-04T15:39:29.718Z,46.00
2019-02-04T15:42:31.896Z,31.47
2019-02-04T15:45:04.848Z,23.17
2019-02-04T15:47:42.676Z,25.43
2019-02-04T15:50:55.028Z,22.70
2019-02-04T15:53:24.523Z,26.83
2019-02-04T15:55:54.392Z,23.70
2019-02-04T15:58:23.996Z,54.27
2019-02-04T16:00:55.612Z,49.90
2019-02-04T16:03:25.306Z,58.40
2019-02-04T16:05:54.706Z,70.43
2019-02-04T16:08:24.623Z,107.50
2019-02-04T16:10:54.103Z,78.37
2019-02-04T16:13:23.867Z,52.67
2019-02-04T16:15:53.249Z,55.50
2019-02-04T16:18:22.964Z,71.37
2019-02-04T16:20:52.720Z,64.50
2019-02-04T16:23:22.120Z,53.83
2019-02-04T16:25:51.523Z,42.53
2019-02-04T16:28:21.659Z,40.70
2019-02-04T16:30:53.587Z,52.60
2019-02-04T16:33:23.198Z,46.67
2019-02-04T16:35:52.980Z,42.43
2019-02-04T16:38:22.671Z,44.70
2019-02-04T16:40:52.662Z,41.67
2019-02-04T16:43:22.245Z,57.93
2019-02-04T16:45:52.644Z,47.57
2019-02-04T16:48:22.147Z,51.97
2019-02-04T16:51:10.636Z,61.80
2019-02-04T16:53:25.263Z,49.60
2019-02-04T16:55:55.351Z,49.20
2019-02-04T16:58:24.926Z,45.30
2019-02-04T17:00:54.355Z,38.33
2019-02-04T17:03:24.290Z,32.13
2019-02-04T17:05:53.797Z,29.07
2019-02-04T17:08:23.494Z,25.43
2019-02-04T17:10:53.073Z,21.83
2019-02-04T17:13:23.332Z,23.30
2019-02-04T17:15:53.397Z,20.53
2019-02-04T17:18:22.897Z,21.50
2019-02-04T17:20:52.300Z,22.37
2019-02-04T17:23:22.819Z,25.43
2019-02-04T17:25:54.587Z,27.53
2019-02-04T17:28:24.410Z,29.43
2019-02-04T17:30:54.271Z,30.13
2019-02-04T17:33:24.028Z,29.13
2019-02-04T17:35:53.509Z,25.87
2019-02-04T17:38:23.717Z,27.60
2019-02-04T17:40:53.578Z,27.10
2019-02-04T17:43:23.247Z,29.47
2019-02-04T17:45:52.665Z,29.93
2019-02-04T17:48:23.504Z,27.87
2019-02-04T17:50:53.474Z,28.23
2019-02-04T17:53:33.608Z,28.53
2019-02-04T17:55:54.388Z,26.67
2019-02-04T17:58:24.815Z,27.93
2019-02-04T18:00:55.039Z,27.63
2019-02-04T18:03:25.142Z,26.60
2019-02-04T18:05:55.325Z,26.60
2019-02-04T18:08:24.742Z,31.80
2019-02-04T18:10:54.534Z,37.90
2019-02-04T18:13:24.313Z,42.30
2019-02-04T18:15:54.128Z,48.00
2019-02-04T18:18:24.182Z,50.00
2019-02-04T18:20:53.892Z,48.47
2019-02-04T18:23:23.732Z,44.93
2019-02-04T18:25:53.641Z,38.50
2019-02-04T18:28:23.104Z,34.17
2019-02-04T18:30:52.837Z,34.87
2019-02-04T18:33:22.674Z,30.67
2019-02-04T18:35:52.217Z,28.30
2019-02-04T18:38:21.635Z,27.57
2019-02-04T18:40:51.315Z,37.87
2019-02-04T18:43:21.191Z,36.97
2019-02-04T18:45:50.946Z,40.03
2019-02-04T18:48:21.122Z,32.13
2019-02-04T18:50:50.834Z,33.53
2019-02-04T18:53:20.257Z,58.73
2019-02-04T18:55:49.689Z,66.37
2019-02-04T18:58:19.433Z,71.27
2019-02-04T19:00:49.679Z,63.77
2019-02-04T19:03:19.096Z,55.40
2019-02-04T19:05:48.650Z,45.00
2019-02-04T19:08:18.376Z,34.73
2019-02-04T19:10:47.874Z,21.70
2019-02-04T19:13:17.298Z,23.63
2019-02-04T19:15:46.877Z,36.07
2019-02-04T19:18:18.793Z,39.87
2019-02-04T19:20:48.719Z,33.27
2019-02-04T19:23:18.465Z,28.93
2019-02-04T19:25:48.118Z,24.43
2019-02-04T19:28:17.980Z,23.17
2019-02-04T19:31:17.200Z,32.83
2019-02-04T19:33:47.069Z,33.73
2019-02-04T19:36:18.577Z,30.70
2019-02-04T19:38:48.465Z,29.07
2019-02-04T19:41:18.333Z,23.77
2019-02-04T19:43:47.833Z,23.67
2019-02-04T19:46:17.339Z,20.60
2019-02-04T19:48:46.741Z,18.33
2019-02-04T19:51:16.523Z,16.43
2019-02-04T19:53:46.031Z,17.50
2019-02-04T19:56:15.534Z,18.80
2019-02-04T19:58:45.082Z,17.73
2019-02-04T20:01:14.751Z,20.33
2019-02-04T20:03:44.548Z,19.33
2019-02-04T20:06:14.335Z,22.63
2019-02-04T20:08:44.090Z,19.67
2019-02-04T20:11:13.767Z,23.37
2019-02-04T20:13:43.399Z,26.30
2019-02-04T20:16:13.252Z,22.07
2019-02-04T20:18:42.786Z,74.07
2019-02-04T20:21:12.456Z,50.00
2019-02-04T20:23:41.978Z,24.60
2019-02-04T20:26:11.636Z,26.60
2019-02-04T20:28:41.039Z,13.63
2019-02-04T20:31:10.486Z,20.93
2019-02-04T20:33:40.019Z,19.13
2019-02-04T20:36:10.096Z,25.43
2019-02-04T20:38:39.928Z,33.03
2019-02-04T20:41:09.652Z,29.07
2019-02-04T20:43:40.552Z,27.03
2019-02-04T20:46:10.096Z,25.53
2019-02-04T20:48:39.874Z,46.03
2019-02-04T20:51:09.835Z,39.90
2019-02-04T20:53:39.528Z,24.67
2019-02-04T20:56:09.238Z,22.33
2019-02-04T20:58:38.822Z,23.87
2019-02-04T21:01:08.779Z,22.00
2019-02-04T21:03:38.185Z,19.00
2019-02-04T21:06:07.596Z,15.67
2019-02-04T21:08:38.449Z,14.23
2019-02-04T21:11:08.188Z,11.67
2019-02-04T21:13:37.577Z,10.87
2019-02-04T21:16:06.990Z,10.70
2019-02-04T21:18:36.535Z,10.53
2019-02-04T21:21:06.010Z,9.37
2019-02-04T21:23:35.422Z,12.40
2019-02-04T21:26:06.960Z,15.73
2019-02-04T21:28:36.517Z,13.97
2019-02-04T21:31:06.299Z,15.13
2019-02-04T21:33:36.069Z,16.03
2019-02-04T21:36:05.783Z,15.13
2019-02-04T21:38:35.178Z,14.80
2019-02-04T21:41:04.823Z,14.63
2019-02-04T21:43:35.120Z,15.70
2019-02-04T21:46:04.715Z,16.10
2019-02-04T21:48:34.286Z,18.47
2019-02-04T21:51:03.728Z,14.93
2019-02-04T21:53:33.447Z,11.57
2019-02-04T21:56:03.346Z,13.80
2019-02-04T21:58:32.785Z,14.90
2019-02-04T22:01:02.378Z,14.53
2019-02-04T22:03:31.992Z,13.53
2019-02-04T22:06:01.613Z,11.43
2019-02-04T22:08:31.007Z,10.47
2019-02-04T22:11:00.605Z,11.93
2019-02-04T22:13:30.257Z,11.27
2019-02-04T22:15:59.942Z,12.37
2019-02-04T22:18:29.758Z,11.90
2019-02-04T22:20:59.569Z,14.60
2019-02-04T22:23:29.150Z,11.80
2019-02-04T22:25:58.971Z,11.23
2019-02-04T22:28:28.593Z,9.90
2019-02-04T22:30:58.690Z,13.03
2019-02-04T22:33:28.100Z,13.47
2019-02-04T22:35:57.590Z,10.40
2019-02-04T22:38:27.197Z,7.53
2019-02-04T22:40:56.794Z,8.80
2019-02-04T22:43:26.275Z,10.43
2019-02-04T22:45:55.920Z,11.03
2019-02-04T22:48:25.719Z,12.00
2019-02-04T22:50:55.138Z,9.67
2019-02-04T22:53:24.733Z,8.97
2019-02-04T22:55:54.125Z,10.07
2019-02-04T22:58:23.606Z,9.93
2019-02-04T23:01:18.816Z,9.90
2019-02-04T23:03:48.261Z,9.87
2019-02-04T23:06:17.927Z,11.10
2019-02-04T23:08:47.432Z,11.53
2019-02-04T23:11:17.218Z,14.60
2019-02-04T23:13:46.623Z,16.93
2019-02-04T23:16:16.024Z,20.10
2019-02-04T23:18:45.442Z,18.90
2019-02-04T23:21:14.848Z,14.37
2019-02-04T23:23:44.304Z,11.13
2019-02-04T23:26:14.141Z,11.80
2019-02-04T23:28:43.542Z,15.57
2019-02-04T23:31:12.944Z,16.23
2019-02-04T23:33:42.428Z,14.63
2019-02-04T23:36:11.953Z,11.13
2019-02-04T23:38:41.356Z,11.57
2019-02-04T23:41:10.757Z,12.03
2019-02-04T23:43:40.261Z,10.13
2019-02-04T23:46:09.753Z,9.87
2019-02-04T23:48:39.180Z,10.77
2019-02-04T23:51:08.575Z,11.87
2019-02-04T23:53:38.063Z,12.00
2019-02-04T23:56:07.652Z,8.40
2019-02-04T23:58:37.042Z,7.77
